createdAt,value
2023-02-27T00:02:01.904Z,101709.69
2023-02-27T00:05:03.497Z,101713.25
2023-02-27T00:08:04.983Z,101714.16
2023-02-27T00:11:06.462Z,101712.41
2023-02-27T00:14:08.028Z,101709.59
2023-02-27T00:17:09.547Z,101720.41
2023-02-27T00:20:13.556Z,101715.00
2023-02-27T00:23:17.890Z,101711.53
2023-02-27T00:26:19.412Z,101716.09
2023-02-27T00:29:20.926Z,101717.97
2023-02-27T00:32:27.176Z,101724.34
2023-02-27T00:35:28.777Z,101715.47
2023-02-27T00:38:30.708Z,101716.47
2023-02-27T00:41:32.429Z,101712.03
2023-02-27T00:44:33.953Z,101713.88
2023-02-27T00:47:36.213Z,101706.63
2023-02-27T00:50:38.063Z,101701.94
2023-02-27T00:53:39.635Z,101705.63
2023-02-27T00:56:41.193Z,101705.63
2023-02-27T00:59:42.742Z,101708.34
2023-02-27T01:02:46.436Z,101707.34
2023-02-27T01:05:48.021Z,101703.66
2023-02-27T01:08:49.540Z,101708.34
2023-02-27T01:11:52.125Z,101707.47
2023-02-27T01:14:53.653Z,101712.16
2023-02-27T01:17:55.195Z,101713.16
2023-02-27T01:20:56.706Z,101702.44
2023-02-27T01:23:58.334Z,101702.44
2023-02-27T01:26:59.838Z,101707.72
2023-02-27T01:30:01.362Z,101706.84
2023-02-27T01:33:02.904Z,101702.31
2023-02-27T01:36:04.810Z,101706.75
2023-02-27T01:39:06.396Z,101708.59
2023-02-27T01:42:23.532Z,101705.75
2023-02-27T01:45:27.117Z,101708.44
2023-02-27T01:48:36.344Z,101705.88
2023-02-27T01:51:41.852Z,101704.13
2023-02-27T01:54:43.455Z,101707.94
2023-02-27T01:57:46.410Z,101700.81
2023-02-27T02:00:50.241Z,101693.69
2023-02-27T02:04:20.716Z,101693.69
2023-02-27T02:07:22.407Z,101704.38
2023-02-27T02:10:25.088Z,101707.09
2023-02-27T02:13:27.520Z,101716.06
2023-02-27T02:16:54.459Z,101718.69
2023-02-27T02:20:23.870Z,101712.25
2023-02-27T02:24:21.171Z,101711.41
2023-02-27T02:27:41.176Z,101698.97
2023-02-27T02:30:57.803Z,101699.72
2023-02-27T02:34:49.366Z,101702.69
2023-02-27T02:38:25.109Z,101706.34
2023-02-27T02:41:47.648Z,101704.63
2023-02-27T02:45:24.431Z,101706.34
2023-02-27T02:48:36.408Z,101698.22
2023-02-27T02:51:50.874Z,101701.81
2023-02-27T02:55:09.791Z,101698.22
2023-02-27T02:58:26.601Z,101707.25
2023-02-27T03:01:32.129Z,101705.38
2023-02-27T03:04:46.642Z,101703.78
2023-02-27T03:08:02.312Z,101703.63
2023-02-27T03:11:05.383Z,101703.63
2023-02-27T03:14:21.328Z,101705.59
2023-02-27T03:17:36.802Z,101705.72
2023-02-27T03:20:43.972Z,101708.31
2023-02-27T03:23:47.881Z,101704.84
2023-02-27T03:26:52.378Z,101708.31
2023-02-27T03:30:00.586Z,101711.91
2023-02-27T03:33:08.141Z,101716.44
2023-02-27T03:36:27.495Z,101710.06
2023-02-27T03:39:52.863Z,101714.47
2023-02-27T03:43:14.031Z,101716.31
2023-02-27T03:46:28.910Z,101720.09
2023-02-27T03:49:30.777Z,101710.16
2023-02-27T03:52:32.610Z,101715.78
2023-02-27T03:55:37.843Z,101724.78
2023-02-27T03:58:40.147Z,101722.22
2023-02-27T04:01:43.748Z,101736.59
2023-02-27T04:04:45.538Z,101738.31
2023-02-27T04:08:25.980Z,101746.13
2023-02-27T04:12:09.940Z,101737.88
2023-02-27T04:15:22.440Z,101739.50
2023-02-27T04:18:45.666Z,101755.59
2023-02-27T04:22:10.084Z,101746.50
2023-02-27T04:25:23.879Z,101760.06
2023-02-27T04:28:48.923Z,101764.47
2023-02-27T04:32:21.607Z,101765.34
2023-02-27T04:35:34.990Z,101763.38
2023-02-27T04:39:06.199Z,101763.38
2023-02-27T04:42:16.468Z,101764.38
2023-02-27T04:45:22.813Z,101763.53
2023-02-27T04:48:28.293Z,101769.91
2023-02-27T04:51:44.735Z,101764.47
2023-02-27T04:54:49.451Z,101771.00
2023-02-27T04:58:00.900Z,101765.59
2023-02-27T05:01:11.686Z,101766.69
2023-02-27T05:04:18.511Z,101762.13
2023-02-27T05:07:26.742Z,101759.66
2023-02-27T05:10:47.512Z,101761.53
2023-02-27T05:13:57.292Z,101758.81
2023-02-27T05:17:18.101Z,101767.91
2023-02-27T05:20:19.918Z,101767.16
2023-02-27T05:23:43.662Z,101771.56
2023-02-27T05:27:10.054Z,101777.88
2023-02-27T05:30:26.405Z,101773.66
2023-02-27T05:33:37.956Z,101782.66
2023-02-27T05:37:10.405Z,101788.06
2023-02-27T05:40:15.795Z,101792.63
2023-02-27T05:43:34.556Z,101796.19
2023-02-27T05:46:41.494Z,101794.25
2023-02-27T05:49:57.105Z,101795.94
2023-02-27T05:53:02.974Z,101796.84
2023-02-27T05:56:06.502Z,101797.69
2023-02-27T05:59:17.259Z,101792.28
2023-02-27T06:02:18.923Z,101802.16
2023-02-27T06:05:21.568Z,101802.91
2023-02-27T06:08:23.832Z,101806.34
2023-02-27T06:11:25.297Z,101807.22
2023-02-27T06:14:27.784Z,101812.50
2023-02-27T06:17:29.330Z,101809.78
2023-02-27T06:20:30.818Z,101815.09
2023-02-27T06:23:32.399Z,101817.69
2023-02-27T06:26:33.896Z,101823.97
2023-02-27T06:29:35.401Z,101821.13
2023-02-27T06:32:36.864Z,101828.41
2023-02-27T06:35:38.559Z,101822.13
2023-02-27T06:38:40.385Z,101828.53
2023-02-27T06:41:41.890Z,101826.78
2023-02-27T06:44:43.381Z,101831.47
2023-02-27T06:47:44.898Z,101833.31
2023-02-27T06:50:50.517Z,101841.56
2023-02-27T06:53:52.274Z,101840.81
2023-02-27T06:56:53.960Z,101831.84
2023-02-27T06:59:55.485Z,101830.94
2023-02-27T07:02:57.080Z,101837.25
2023-02-27T07:05:59.029Z,101837.38
2023-02-27T07:09:06.318Z,101845.59
2023-02-27T07:12:08.984Z,101849.25
2023-02-27T07:15:11.034Z,101846.66
2023-02-27T07:18:12.649Z,101850.38
2023-02-27T07:21:15.520Z,101854.94
2023-02-27T07:24:17.362Z,101854.78
2023-02-27T07:27:18.856Z,101868.34
2023-02-27T07:30:20.534Z,101857.50
2023-02-27T07:33:22.329Z,101867.38
2023-02-27T07:36:23.955Z,101859.25
2023-02-27T07:39:25.529Z,101857.28
2023-02-27T07:42:27.023Z,101862.72
2023-02-27T07:45:29.643Z,101864.56
2023-02-27T07:48:32.523Z,101860.88
2023-02-27T07:51:34.054Z,101863.66
2023-02-27T07:54:37.542Z,101868.13
2023-02-27T07:57:39.653Z,101872.69
2023-02-27T08:00:41.349Z,101872.69
2023-02-27T08:03:42.861Z,101869.97
2023-02-27T08:06:44.750Z,101868.13
2023-02-27T08:09:46.242Z,101865.41
2023-02-27T08:12:47.800Z,101867.16
2023-02-27T08:15:49.348Z,101868.03
2023-02-27T08:18:50.828Z,101867.28
2023-02-27T08:21:52.401Z,101867.28
2023-02-27T08:24:53.905Z,101864.66
2023-02-27T08:27:55.595Z,101869.09
2023-02-27T08:30:57.162Z,101879.84
2023-02-27T08:34:09.436Z,101882.56
2023-02-27T08:37:11.607Z,101886.97
2023-02-27T08:40:13.240Z,101885.03
2023-02-27T08:43:14.725Z,101900.28
2023-02-27T08:46:16.347Z,101901.03
2023-02-27T08:49:20.003Z,101902.88
2023-02-27T08:52:24.956Z,101907.31
2023-02-27T08:55:26.543Z,101907.44
2023-02-27T08:58:28.550Z,101907.56
2023-02-27T09:01:34.310Z,101902.13
2023-02-27T09:04:36.044Z,101897.72
2023-02-27T09:07:37.494Z,101898.56
2023-02-27T09:10:39.082Z,101896.63
2023-02-27T09:13:40.556Z,101899.31
2023-02-27T09:16:42.046Z,101906.34
2023-02-27T09:19:43.573Z,101898.09
2023-02-27T09:22:45.037Z,101906.22
2023-02-27T09:25:47.486Z,101911.44
2023-02-27T09:28:49.536Z,101913.38
2023-02-27T09:31:51.771Z,101913.25
2023-02-27T09:34:53.739Z,101904.25
2023-02-27T09:37:57.625Z,101916.09
2023-02-27T09:40:59.524Z,101912.72
2023-02-27T09:44:01.638Z,101912.88
2023-02-27T09:47:06.026Z,101913.84
2023-02-27T09:50:22.836Z,101912.88
2023-02-27T09:53:31.365Z,101909.31
2023-02-27T09:56:35.495Z,101911.88
2023-02-27T09:59:46.347Z,101918.91
2023-02-27T10:02:53.941Z,101902.66
2023-02-27T10:06:10.393Z,101909.56
2023-02-27T10:09:43.061Z,101898.59
2023-02-27T10:13:04.415Z,101892.22
2023-02-27T10:16:09.857Z,101894.19
2023-02-27T10:19:17.023Z,101889.84
2023-02-27T10:22:25.148Z,101895.28
2023-02-27T10:25:31.766Z,101894.53
2023-02-27T10:28:34.025Z,101900.06
2023-02-27T10:31:36.289Z,101909.31
2023-02-27T10:34:40.872Z,101903.00
2023-02-27T10:37:49.414Z,101905.69
2023-02-27T10:40:51.265Z,101911.13
2023-02-27T10:43:58.026Z,101914.72
2023-02-27T10:46:59.549Z,101911.03
2023-02-27T10:50:01.106Z,101910.03
2023-02-27T10:53:06.429Z,101911.78
2023-02-27T10:56:14.520Z,101909.91
2023-02-27T10:59:26.315Z,101901.69
2023-02-27T11:02:40.414Z,101904.41
2023-02-27T11:05:41.923Z,101905.34
2023-02-27T11:08:43.783Z,101905.59
2023-02-27T11:11:45.326Z,101909.31
2023-02-27T11:14:58.304Z,101905.69
2023-02-27T11:18:25.686Z,101895.00
2023-02-27T11:21:30.593Z,101899.56
2023-02-27T11:24:33.053Z,101899.56
2023-02-27T11:27:34.625Z,101892.28
2023-02-27T11:30:37.191Z,101899.56
2023-02-27T11:33:47.675Z,101889.59
2023-02-27T11:36:54.108Z,101882.31
2023-02-27T11:40:20.553Z,101877.66
2023-02-27T11:43:21.944Z,101866.91
2023-02-27T11:46:46.936Z,101881.22
2023-02-27T11:50:28.473Z,101867.78
2023-02-27T11:53:52.429Z,101866.06
2023-02-27T11:56:58.752Z,101873.44
2023-02-27T12:00:19.629Z,101877.22
2023-02-27T12:03:24.655Z,101870.09
2023-02-27T12:07:12.626Z,101870.84
2023-02-27T12:10:20.137Z,101877.13
2023-02-27T12:13:31.868Z,101876.16
2023-02-27T12:16:36.509Z,101874.44
2023-02-27T12:19:56.874Z,101877.00
2023-02-27T12:23:01.797Z,101874.19
2023-02-27T12:26:27.228Z,101872.34
2023-02-27T12:29:34.488Z,101865.22
2023-02-27T12:32:47.789Z,101866.16
2023-02-27T12:35:58.128Z,101876.25
2023-02-27T12:38:59.727Z,101871.91
2023-02-27T12:42:07.223Z,101871.19
2023-02-27T12:45:23.066Z,101865.75
2023-02-27T12:48:51.563Z,101873.75
2023-02-27T12:51:59.744Z,101870.94
2023-02-27T12:55:17.639Z,101865.53
2023-02-27T12:58:29.066Z,101866.47
2023-02-27T13:01:48.537Z,101871.72
2023-02-27T13:05:33.087Z,101861.75
2023-02-27T13:09:10.315Z,101864.56
2023-02-27T13:12:25.331Z,101868.03
2023-02-27T13:15:50.961Z,101857.41
2023-02-27T13:19:29.085Z,101862.91
2023-02-27T13:22:39.689Z,101866.63
2023-02-27T13:25:44.710Z,101873.00
2023-02-27T13:28:46.688Z,101866.72
2023-02-27T13:32:06.195Z,101864.78
2023-02-27T13:35:32.192Z,101857.50
2023-02-27T13:38:48.134Z,101854.78
2023-02-27T13:41:49.634Z,101862.16
2023-02-27T13:44:52.582Z,101859.25
2023-02-27T13:47:55.535Z,101862.91
2023-02-27T13:50:58.270Z,101867.47
2023-02-27T13:54:19.891Z,101870.09
2023-02-27T13:57:32.221Z,101862.16
2023-02-27T14:00:37.730Z,101863.25
2023-02-27T14:03:40.412Z,101860.69
2023-02-27T14:06:45.224Z,101857.22
2023-02-27T14:09:50.363Z,101853.53
2023-02-27T14:12:52.966Z,101864.34
2023-02-27T14:15:57.945Z,101865.34
2023-02-27T14:19:01.414Z,101870.53
2023-02-27T14:22:28.599Z,101869.56
2023-02-27T14:25:41.181Z,101869.44
2023-02-27T14:28:48.681Z,101865.75
2023-02-27T14:31:52.886Z,101866.63
2023-02-27T14:34:55.250Z,101862.06
2023-02-27T14:37:59.667Z,101862.06
2023-02-27T14:41:08.021Z,101871.91
2023-02-27T14:44:20.048Z,101868.34
2023-02-27T14:47:31.310Z,101868.56
2023-02-27T14:50:37.267Z,101876.81
2023-02-27T14:53:38.749Z,101877.03
2023-02-27T14:56:41.854Z,101870.78
2023-02-27T14:59:46.244Z,101878.78
2023-02-27T15:02:47.813Z,101875.09
2023-02-27T15:05:51.410Z,101875.72
2023-02-27T15:08:55.127Z,101871.19
2023-02-27T15:12:03.850Z,101874.75
2023-02-27T15:15:07.729Z,101879.16
2023-02-27T15:18:14.483Z,101878.22
2023-02-27T15:21:16.594Z,101882.88
2023-02-27T15:24:40.683Z,101884.47
2023-02-27T15:27:49.266Z,101884.59
2023-02-27T15:30:52.568Z,101884.59
2023-02-27T15:33:54.656Z,101887.44
2023-02-27T15:36:57.949Z,101882.13
2023-02-27T15:40:01.285Z,101883.13
2023-02-27T15:43:03.386Z,101879.50
2023-02-27T15:46:05.155Z,101889.50
2023-02-27T15:49:06.817Z,101881.38
2023-02-27T15:52:24.050Z,101886.78
2023-02-27T15:55:29.995Z,101893.94
2023-02-27T15:58:37.560Z,101888.53
2023-02-27T16:01:39.434Z,101894.66
2023-02-27T16:04:41.043Z,101890.25
2023-02-27T16:07:43.660Z,101892.84
2023-02-27T16:10:46.603Z,101887.44
2023-02-27T16:13:48.703Z,101890.00
2023-02-27T16:16:55.072Z,101897.91
2023-02-27T16:19:58.175Z,101899.66
2023-02-27T16:23:05.166Z,101901.28
2023-02-27T16:26:27.803Z,101894.88
2023-02-27T16:29:35.692Z,101897.56
2023-02-27T16:32:45.585Z,101910.16
2023-02-27T16:35:47.687Z,101917.44
2023-02-27T16:38:49.483Z,101921.09
2023-02-27T16:41:55.159Z,101922.72
2023-02-27T16:44:56.646Z,101919.25
2023-02-27T16:48:00.412Z,101921.00
2023-02-27T16:51:02.150Z,101926.53
2023-02-27T16:54:03.849Z,101922.94
2023-02-27T16:57:05.421Z,101928.38
2023-02-27T17:00:07.896Z,101930.09
2023-02-27T17:03:09.422Z,101927.38
2023-02-27T17:06:12.419Z,101931.06
2023-02-27T17:09:13.989Z,101929.97
2023-02-27T17:12:15.622Z,101927.03
2023-02-27T17:15:17.686Z,101931.34
2023-02-27T17:18:19.971Z,101935.69
2023-02-27T17:21:21.471Z,101935.56
2023-02-27T17:24:23.224Z,101938.03
2023-02-27T17:27:24.783Z,101949.50
2023-02-27T17:30:26.443Z,101941.03
2023-02-27T17:33:30.330Z,101950.66
2023-02-27T17:36:32.191Z,101949.41
2023-02-27T17:39:33.721Z,101952.03
2023-02-27T17:42:36.493Z,101957.34
2023-02-27T17:45:38.570Z,101954.63
2023-02-27T17:48:40.059Z,101960.16
2023-02-27T17:51:41.699Z,101960.16
2023-02-27T17:54:43.485Z,101961.16
2023-02-27T17:57:45.052Z,101962.13
2023-02-27T18:00:46.655Z,101961.16
2023-02-27T18:03:49.374Z,101961.16
2023-02-27T18:06:50.974Z,101961.88
2023-02-27T18:09:52.508Z,101963.88
2023-02-27T18:12:54.015Z,101965.69
2023-02-27T18:15:56.365Z,101963.72
2023-02-27T18:18:58.073Z,101964.72
2023-02-27T18:21:59.529Z,101962.97
2023-02-27T18:25:01.097Z,101969.16
2023-02-27T18:28:03.198Z,101960.06
2023-02-27T18:31:04.975Z,101962.63
2023-02-27T18:34:07.728Z,101959.56
2023-02-27T18:37:10.315Z,101963.03
2023-02-27T18:40:12.637Z,101970.06
2023-02-27T18:43:14.199Z,101962.91
2023-02-27T18:46:16.000Z,101967.22
2023-02-27T18:49:17.498Z,101968.22
2023-02-27T18:52:18.991Z,101968.09
2023-02-27T18:55:20.803Z,101964.50
2023-02-27T18:58:22.290Z,101961.78
2023-02-27T19:01:25.365Z,101967.22
2023-02-27T19:04:26.988Z,101964.50
2023-02-27T19:07:29.796Z,101968.09
2023-02-27T19:10:32.524Z,101968.97
2023-02-27T19:13:34.082Z,101967.22
2023-02-27T19:16:35.965Z,101972.63
2023-02-27T19:19:37.612Z,101970.91
2023-02-27T19:22:39.120Z,101965.50
2023-02-27T19:25:41.953Z,101961.06
2023-02-27T19:28:43.598Z,101965.50
2023-02-27T19:31:45.357Z,101968.22
2023-02-27T19:34:46.964Z,101962.69
2023-02-27T19:37:54.062Z,101967.09
2023-02-27T19:41:00.641Z,101960.59
2023-02-27T19:44:02.198Z,101972.94
2023-02-27T19:47:04.178Z,101972.03
2023-02-27T19:50:07.011Z,101979.81
2023-02-27T19:53:08.520Z,101982.44
2023-02-27T19:56:18.988Z,101972.19
2023-02-27T19:59:21.927Z,101970.59
2023-02-27T20:02:23.401Z,101970.59
2023-02-27T20:05:25.019Z,101977.00
2023-02-27T20:08:26.591Z,101977.00
2023-02-27T20:11:31.675Z,101969.63
2023-02-27T20:14:33.260Z,101972.44
2023-02-27T20:17:35.280Z,101979.59
2023-02-27T20:20:39.383Z,101968.88
2023-02-27T20:23:43.056Z,101974.31
2023-02-27T20:26:49.890Z,101974.41
2023-02-27T20:29:54.538Z,101978.13
2023-02-27T20:32:56.540Z,101979.06
2023-02-27T20:35:58.174Z,101987.22
2023-02-27T20:38:59.675Z,101983.63
2023-02-27T20:42:01.436Z,101982.78
2023-02-27T20:45:03.160Z,101985.38
2023-02-27T20:48:05.292Z,101985.25
2023-02-27T20:51:08.031Z,101980.69
2023-02-27T20:54:13.448Z,101996.75
2023-02-27T20:57:14.953Z,101988.47
2023-02-27T21:00:16.770Z,101990.22
2023-02-27T21:03:18.312Z,101983.03
2023-02-27T21:06:19.923Z,101979.47
2023-02-27T21:09:22.227Z,101982.94
2023-02-27T21:12:23.785Z,101979.97
2023-02-27T21:15:25.319Z,101982.69
2023-02-27T21:18:26.832Z,101992.44
2023-02-27T21:21:31.841Z,101986.91
2023-02-27T21:24:33.853Z,101990.59
2023-02-27T21:27:35.363Z,101996.88
2023-02-27T21:30:37.504Z,101999.47
2023-02-27T21:33:39.071Z,102004.03
2023-02-27T21:36:42.897Z,101992.34
2023-02-27T21:39:47.047Z,101998.72
2023-02-27T21:42:49.549Z,101999.72
2023-02-27T21:45:51.974Z,101998.84
2023-02-27T21:48:53.527Z,101996.34
2023-02-27T21:51:55.456Z,102003.53
2023-02-27T21:54:57.502Z,102000.94
2023-02-27T21:57:59.002Z,102002.78
2023-02-27T22:01:00.600Z,102007.22
2023-02-27T22:04:03.031Z,102013.53
2023-02-27T22:07:04.771Z,102009.06
2023-02-27T22:10:06.492Z,102010.81
2023-02-27T22:13:08.345Z,102009.19
2023-02-27T22:16:11.287Z,102010.91
2023-02-27T22:19:19.507Z,102013.88
2023-02-27T22:22:21.142Z,102010.31
2023-02-27T22:25:22.748Z,102012.03
2023-02-27T22:28:24.280Z,102021.16
2023-02-27T22:31:29.344Z,102025.56
2023-02-27T22:34:31.333Z,102020.25
2023-02-27T22:37:33.750Z,102024.59
2023-02-27T22:40:36.092Z,102019.16
2023-02-27T22:43:39.628Z,102022.75
2023-02-27T22:46:47.094Z,102021.88
2023-02-27T22:49:52.278Z,102016.44
2023-02-27T22:52:53.776Z,102022.88
2023-02-27T22:55:56.452Z,102020.25
2023-02-27T22:58:58.921Z,102023.88
2023-02-27T23:02:00.669Z,102033.72
2023-02-27T23:05:02.311Z,102030.16
2023-02-27T23:08:03.837Z,102022.97
2023-02-27T23:11:05.974Z,102032.00
2023-02-27T23:14:07.959Z,102031.25
2023-02-27T23:17:09.520Z,102036.66
2023-02-27T23:20:11.596Z,102034.91
2023-02-27T23:23:13.059Z,102034.06
2023-02-27T23:26:14.562Z,102030.50
2023-02-27T23:29:16.733Z,102035.06
2023-02-27T23:32:18.309Z,102042.34
2023-02-27T23:35:22.826Z,102041.44
2023-02-27T23:38:25.677Z,102042.34
2023-02-27T23:41:27.675Z,102040.47
2023-02-27T23:44:29.332Z,102046.75
2023-02-27T23:47:45.738Z,102047.50
2023-02-27T23:50:47.882Z,102048.38
2023-02-27T23:53:49.377Z,102051.09
2023-02-27T23:56:51.306Z,102046.50
2023-02-27T23:59:52.786Z,102047.38
